Time;durP1;ratioP1;P1;durP2;ratioP2;P2;SDS_P1;SDS_P2;PMS_P1;PMS_P2;Temp;Humidity;BMP_temperature;BMP_pressure;BME280_temperature;BME280_humidity;BME280_pressure;Samples;Min_cycle;Max_cycle;Signal;HPM_P1;HPM_P2
2022/01/31 00:02:11;;;;;;;19.45;10.40;;;;;;;-1.91;67.21;97525.19;5092106;28;20035;-54
2022/01/31 00:04:36;;;;;;;19.90;9.95;;;;;;;-1.81;67.63;97516.69;5084228;28;20407;-55
2022/01/31 00:07:03;;;;;;;16.92;9.82;;;;;;;-1.79;67.10;97520.06;5071081;28;20032;-55
2022/01/31 00:09:29;;;;;;;17.52;9.48;;;;;;;-1.77;67.11;97528.66;5071774;28;20037;-52
2022/01/31 00:12:02;;;;;;;18.58;9.10;;;;;;;-1.75;66.72;97534.66;5081822;28;20540;-58
2022/01/31 00:14:50;;;;;;;19.80;10.88;;;;;;;-1.85;66.92;97510.81;5090279;28;20032;-54
2022/01/31 00:17:15;;;;;;;17.95;9.23;;;;;;;-1.75;66.47;97509.25;5086392;28;20127;-54
2022/01/31 00:19:42;;;;;;;19.58;10.32;;;;;;;-1.82;66.78;97510.59;5071310;28;20032;-53
2022/01/31 00:22:09;;;;;;;20.27;9.98;;;;;;;-2.07;67.85;97466.84;5075619;28;20031;-57
2022/01/31 00:24:35;;;;;;;16.48;9.63;;;;;;;-1.84;67.31;97512.50;5071080;28;20078;-57
2022/01/31 00:27:06;;;;;;;18.98;10.13;;;;;;;-1.75;66.94;97500.53;5070897;28;20028;-54
2022/01/31 00:29:32;;;;;;;18.98;10.05;;;;;;;-1.88;67.06;97504.00;5070479;28;20103;-54
2022/01/31 00:31:57;;;;;;;15.82;7.82;;;;;;;-1.70;67.15;97505.47;5071774;28;20040;-53
2022/01/31 00:34:23;;;;;;;20.02;10.60;;;;;;;-1.71;66.84;97496.75;5069819;28;20029;-57
2022/01/31 00:36:49;;;;;;;18.80;10.15;;;;;;;-2.01;67.29;97466.41;5071731;28;20158;-57
2022/01/31 00:39:15;;;;;;;17.60;9.57;;;;;;;-1.81;67.25;97495.72;5071265;28;20028;-56
2022/01/31 00:41:40;;;;;;;15.20;8.25;;;;;;;-1.75;66.76;97504.03;5071411;28;20036;-56
2022/01/31 00:46:41;;;;;;;18.77;10.15;;;;;;;-1.87;67.40;97486.47;5070847;28;20122;-54
2022/01/31 00:49:51;;;;;;;23.58;11.20;;;;;;;-1.88;67.37;97480.41;5071381;28;20043;-53
2022/01/31 00:51:57;;;;;;;22.77;11.48;;;;;;;-1.74;67.01;97481.22;5065723;28;20045;-57
2022/01/31 00:54:23;;;;;;;14.07;6.20;;;;;;;-1.77;66.54;97455.22;5071728;28;20037;-56
2022/01/31 00:56:49;;;;;;;20.88;11.10;;;;;;;-1.98;66.89;97440.00;5069911;28;20147;-56
2022/01/31 00:59:15;;;;;;;20.75;11.07;;;;;;;-1.67;66.47;97468.53;5105091;28;20019;-56
2022/01/31 01:01:41;;;;;;;20.25;10.35;;;;;;;-1.64;66.55;97473.56;5109669;28;20539;-55
2022/01/31 01:04:06;;;;;;;21.40;11.70;;;;;;;-1.62;66.45;97476.94;5107870;28;20027;-53
2022/01/31 01:06:32;;;;;;;20.38;10.88;;;;;;;-2.10;67.43;97441.66;5108636;28;20032;-58
2022/01/31 01:08:57;;;;;;;22.40;10.25;;;;;;;-1.96;66.56;97451.22;5097778;28;20385;-56
2022/01/31 01:11:23;;;;;;;21.15;11.02;;;;;;;-1.78;66.82;97482.38;5089298;28;20039;-51
2022/01/31 01:13:49;;;;;;;24.75;11.70;;;;;;;-1.75;66.71;97471.69;5088916;28;20028;-55
2022/01/31 01:16:15;;;;;;;24.15;11.40;;;;;;;-1.78;67.06;97461.41;5089309;28;20181;-56
2022/01/31 01:18:40;;;;;;;24.50;11.68;;;;;;;-1.81;67.43;97470.34;5090463;28;20024;-55
2022/01/31 01:21:06;;;;;;;21.30;10.27;;;;;;;-1.85;67.10;97465.41;5092338;28;20491;-53
2022/01/31 01:23:31;;;;;;;19.95;10.70;;;;;;;-1.82;67.38;97466.00;5094600;28;20034;-54
2022/01/31 01:25:57;;;;;;;19.00;9.18;;;;;;;-1.78;67.55;97474.53;5081396;28;20077;-54
2022/01/31 01:28:24;;;;;;;21.13;12.32;;;;;;;-1.79;67.21;97475.47;5094937;28;20123;-55
2022/01/31 01:30:50;;;;;;;25.45;12.65;;;;;;;-1.75;66.98;97476.94;5094217;28;20375;-56
2022/01/31 01:33:21;;;;;;;24.77;12.20;;;;;;;-2.06;67.56;97432.63;5094430;28;20032;-51
2022/01/31 01:35:49;;;;;;;26.23;12.77;;;;;;;-1.73;67.96;97496.88;5094710;28;20024;-56
2022/01/31 01:38:17;;;;;;;21.75;12.32;;;;;;;-1.65;67.19;97482.38;5094498;28;20028;-57
2022/01/31 01:40:44;;;;;;;24.42;12.15;;;;;;;-1.62;67.75;97479.56;5089547;28;20036;-55
2022/01/31 01:43:11;;;;;;;21.42;12.07;;;;;;;-1.55;67.26;97479.97;5094706;28;20107;-59
2022/01/31 01:45:39;;;;;;;25.17;12.75;;;;;;;-1.53;67.02;97480.72;5094096;28;20030;-57
2022/01/31 01:48:06;;;;;;;22.40;12.00;;;;;;;-1.49;66.54;97479.53;5094290;28;20032;-53
2022/01/31 01:50:33;;;;;;;25.23;13.35;;;;;;;-1.51;67.04;97481.44;5094915;28;20472;-55
2022/01/31 01:53:00;;;;;;;24.52;12.40;;;;;;;-1.53;66.83;97485.97;5094232;28;20036;-53
2022/01/31 01:55:25;;;;;;;26.95;12.82;;;;;;;-1.53;67.21;97485.97;5088972;28;20037;-54
2022/01/31 01:57:51;;;;;;;23.65;11.68;;;;;;;-1.56;67.09;97478.31;5073846;28;20468;-55
2022/01/31 02:00:24;;;;;;;18.23;10.75;;;;;;;-1.47;66.47;97475.88;5074031;28;20468;-56
2022/01/31 02:02:50;;;;;;;21.80;12.07;;;;;;;-1.52;66.94;97477.13;5073617;28;20028;-56
2022/01/31 02:05:16;;;;;;;24.05;12.80;;;;;;;-1.53;66.98;97465.81;5073822;28;20051;-54
2022/01/31 02:07:42;;;;;;;25.17;12.82;;;;;;;-1.48;67.80;97462.84;5074182;28;20456;-52
2022/01/31 02:10:08;;;;;;;22.88;12.13;;;;;;;-1.33;66.37;97477.53;5074287;28;20060;-59
2022/01/31 02:12:39;;;;;;;24.63;12.27;;;;;;;-1.39;66.62;97485.84;5083216;28;20548;-56
2022/01/31 02:15:06;;;;;;;21.85;11.57;;;;;;;-1.52;66.27;97459.63;5073961;28;20033;-53
2022/01/31 02:17:31;;;;;;;26.10;12.98;;;;;;;-1.46;66.62;97474.09;5074216;28;20033;-52
2022/01/31 02:19:57;;;;;;;23.15;12.48;;;;;;;-1.56;66.63;97486.16;5073272;28;20082;-58
2022/01/31 02:22:22;;;;;;;25.58;12.25;;;;;;;-1.56;66.70;97476.53;5073083;28;20136;-56
2022/01/31 02:24:48;;;;;;;23.45;12.18;;;;;;;-1.65;67.53;97472.75;5073690;28;20024;-58
2022/01/31 02:27:13;;;;;;;26.52;12.75;;;;;;;-1.69;67.57;97465.19;5081438;28;20024;-56
2022/01/31 02:29:39;;;;;;;24.45;12.40;;;;;;;-1.52;67.40;97480.63;5076435;28;20102;-54
2022/01/31 02:32:05;;;;;;;24.75;10.75;;;;;;;-1.49;67.02;97479.53;5072230;28;20039;-57
2022/01/31 02:34:30;;;;;;;26.38;12.38;;;;;;;-1.40;66.28;97486.81;5073803;28;20532;-53
2022/01/31 02:36:56;;;;;;;24.92;12.43;;;;;;;-1.45;66.81;97481.88;5073721;28;20032;-53
2022/01/31 02:39:21;;;;;;;23.98;11.88;;;;;;;-1.63;67.38;97481.34;5071753;28;20111;-55
2022/01/31 02:41:48;;;;;;;26.42;12.52;;;;;;;-1.66;68.20;97476.31;5073861;28;20033;-57
2022/01/31 02:44:15;;;;;;;24.85;13.27;;;;;;;-1.54;67.67;97481.66;5093367;28;20032;-56
2022/01/31 02:46:48;;;;;;;24.70;12.43;;;;;;;-1.51;67.15;97477.03;5084136;28;20048;-56
2022/01/31 02:49:17;;;;;;;23.50;11.98;;;;;;;-1.48;67.04;97478.59;5088887;28;20039;-57
2022/01/31 02:51:48;;;;;;;26.33;11.70;;;;;;;-1.52;67.41;97485.00;5092610;28;20031;-57
2022/01/31 02:54:13;;;;;;;30.90;12.80;;;;;;;-1.62;67.59;97474.31;5093225;28;20369;-53
2022/01/31 02:56:40;;;;;;;24.70;11.90;;;;;;;-1.64;67.34;97470.94;5088827;28;20043;-53
2022/01/31 02:59:06;;;;;;;23.02;11.88;;;;;;;-1.60;67.68;97478.50;5081786;28;20025;-56
2022/01/31 03:01:37;;;;;;;23.73;12.40;;;;;;;-1.56;67.75;97475.69;5072556;28;20051;-56
2022/01/31 03:04:03;;;;;;;22.75;12.15;;;;;;;-1.63;68.30;97468.22;5073338;28;20024;-55
2022/01/31 03:06:29;;;;;;;24.60;10.25;;;;;;;-1.48;67.51;97478.59;5072893;28;20127;-54
2022/01/31 03:08:55;;;;;;;23.90;11.27;;;;;;;-1.39;66.84;97477.97;5072467;28;20035;-54
2022/01/31 03:11:21;;;;;;;21.50;11.80;;;;;;;-1.53;67.88;97467.59;5074350;28;20035;-52
2022/01/31 03:13:46;;;;;;;25.13;12.32;;;;;;;-1.64;67.82;97465.69;5092455;28;20028;-53
2022/01/31 03:16:12;;;;;;;21.77;10.82;;;;;;;-1.55;67.18;97466.84;5092543;28;20494;-55
2022/01/31 03:18:38;;;;;;;23.75;12.25;;;;;;;-1.62;67.66;97462.03;5092599;28;20028;-54
2022/01/31 03:21:03;;;;;;;21.88;10.57;;;;;;;-1.42;66.87;97478.19;5092686;28;20042;-55
2022/01/31 03:23:29;;;;;;;25.80;12.73;;;;;;;-1.61;67.96;97470.72;5092562;28;20034;-53
2022/01/31 03:25:54;;;;;;;24.42;12.18;;;;;;;-1.78;68.70;97459.63;5091777;28;20171;-56
2022/01/31 03:28:20;;;;;;;24.60;12.02;;;;;;;-1.62;68.35;97475.16;5080803;28;20411;-58
2022/01/31 03:30:45;;;;;;;24.20;12.32;;;;;;;-1.55;67.74;97456.38;5070166;28;20031;-55
2022/01/31 03:33:11;;;;;;;21.80;11.70;;;;;;;-1.52;68.27;97472.75;5068521;28;20070;-54
2022/01/31 03:35:37;;;;;;;26.52;12.02;;;;;;;-1.48;68.01;97474.22;5070098;28;20021;-55
2022/01/31 03:38:02;;;;;;;25.42;12.57;;;;;;;-1.41;67.36;97477.25;5070270;28;20033;-54
2022/01/31 03:40:28;;;;;;;21.83;11.10;;;;;;;-1.48;67.58;97473.34;5069767;28;20036;-57
2022/01/31 03:42:54;;;;;;;22.92;11.48;;;;;;;-1.50;68.02;97483.97;5072635;28;20068;-55
2022/01/31 03:45:19;;;;;;;24.15;11.40;;;;;;;-1.48;67.80;97481.22;5091561;28;20107;-51
2022/01/31 03:47:46;;;;;;;24.00;12.75;;;;;;;-1.76;68.16;97435.91;5091705;28;20476;-55
2022/01/31 03:50:14;;;;;;;24.58;13.15;;;;;;;-1.51;68.17;97489.31;5090301;28;20423;-54
2022/01/31 03:52:42;;;;;;;23.33;12.65;;;;;;;-1.52;67.93;97479.75;5092099;28;20480;-55
2022/01/31 03:55:08;;;;;;;18.65;9.95;;;;;;;-1.56;68.07;97473.06;5092346;28;20040;-56
2022/01/31 03:57:34;;;;;;;27.30;12.30;;;;;;;-1.53;68.05;97483.34;5091717;28;20118;-54
2022/01/31 04:00:00;;;;;;;27.80;13.13;;;;;;;-1.55;67.82;97472.09;5078661;28;20115;-53
2022/01/31 04:02:26;;;;;;;21.90;11.15;;;;;;;-1.42;67.39;97483.44;5071999;28;20037;-57
2022/01/31 04:04:51;;;;;;;22.95;11.68;;;;;;;-1.51;67.68;97476.19;5071454;28;20123;-57
2022/01/31 04:07:17;;;;;;;22.35;11.02;;;;;;;-1.52;67.93;97471.88;5071350;28;20074;-58
2022/01/31 04:09:42;;;;;;;27.88;13.20;;;;;;;-1.77;68.35;97437.69;5071370;28;20397;-51
2022/01/31 04:12:08;;;;;;;25.50;12.65;;;;;;;-1.61;68.83;97482.09;5072140;28;20392;-57
2022/01/31 04:14:34;;;;;;;26.25;13.05;;;;;;;-1.56;68.86;97475.69;5076501;28;20050;-57
2022/01/31 04:17:00;;;;;;;27.90;13.55;;;;;;;-1.47;68.59;97465.38;5076252;28;20244;-55
2022/01/31 04:19:25;;;;;;;23.65;12.40;;;;;;;-1.36;68.16;97472.50;5071428;28;20070;-53
2022/01/31 04:21:51;;;;;;;20.73;9.95;;;;;;;-1.28;67.67;97471.13;5070340;28;20029;-53
2022/01/31 04:24:22;;;;;;;27.58;13.55;;;;;;;-1.38;67.58;97469.16;5071046;28;20032;-57
2022/01/31 04:26:57;;;;;;;27.48;12.68;;;;;;;-1.42;67.94;97462.44;5070472;28;20032;-55
2022/01/31 04:29:24;;;;;;;26.23;12.85;;;;;;;-1.47;68.00;97470.63;5073213;28;20426;-55
2022/01/31 04:31:54;;;;;;;28.73;12.05;;;;;;;-1.42;68.33;97482.59;5091452;28;20112;-54
2022/01/31 04:34:20;;;;;;;28.08;12.40;;;;;;;-1.35;68.26;97478.59;5091240;28;20411;-58
2022/01/31 04:36:46;;;;;;;28.83;13.95;;;;;;;-1.41;68.24;97481.66;5090616;28;20098;-54
2022/01/31 04:39:16;;;;;;;26.83;13.60;;;;;;;-1.32;67.57;97460.84;5091376;28;20448;-55
2022/01/31 04:41:42;;;;;;;22.70;12.80;;;;;;;-1.28;67.53;97463.25;5091497;28;20028;-57
2022/01/31 04:44:08;;;;;;;26.90;12.65;;;;;;;-1.36;67.94;97463.78;5089965;28;20028;-56
2022/01/31 04:46:34;;;;;;;29.25;12.90;;;;;;;-1.33;67.49;97464.41;5088610;28;20052;-55
2022/01/31 04:49:00;;;;;;;25.23;12.90;;;;;;;-1.42;68.06;97467.69;5089552;28;20035;-56
2022/01/31 04:51:25;;;;;;;28.08;12.98;;;;;;;-1.33;67.67;97467.03;5091614;28;20043;-53
2022/01/31 04:53:51;;;;;;;23.17;11.90;;;;;;;-1.33;67.63;97467.03;5090799;28;20032;-58
2022/01/31 04:56:17;;;;;;;20.27;10.00;;;;;;;-1.31;68.05;97465.16;5089929;28;20024;-57
2022/01/31 04:58:43;;;;;;;27.90;13.48;;;;;;;-1.35;67.89;97465.47;5090243;28;20032;-56
2022/01/31 05:01:09;;;;;;;22.00;11.68;;;;;;;-1.22;67.44;97463.66;5084015;28;20031;-55
2022/01/31 05:03:34;;;;;;;27.13;13.10;;;;;;;-1.41;67.94;97440.50;5070482;28;20089;-57
2022/01/31 05:06:00;;;;;;;25.23;12.57;;;;;;;-1.23;67.43;97469.00;5070412;28;20029;-53
2022/01/31 05:08:28;;;;;;;16.90;8.93;;;;;;;-1.09;67.33;97468.88;5070206;28;20120;-55
2022/01/31 05:10:54;;;;;;;23.58;12.50;;;;;;;-1.22;67.65;97484.66;5070245;28;20033;-58
2022/01/31 05:13:20;;;;;;;23.40;11.93;;;;;;;-1.17;67.19;97474.69;5069166;28;20043;-55
2022/01/31 05:15:46;;;;;;;23.88;12.63;;;;;;;-1.19;67.08;97494.13;5070746;28;20078;-54
2022/01/31 05:18:12;;;;;;;25.20;12.82;;;;;;;-1.25;67.38;97490.16;5080269;28;20033;-59
2022/01/31 05:20:38;;;;;;;27.98;14.02;;;;;;;-1.27;67.49;97475.44;5070412;28;20045;-57
2022/01/31 05:23:08;;;;;;;25.90;11.90;;;;;;;-1.24;68.17;97469.97;5069965;28;20105;-58
2022/01/31 05:25:34;;;;;;;23.50;12.70;;;;;;;-1.21;67.74;97473.22;5070549;28;20040;-54
2022/01/31 05:27:59;;;;;;;24.40;12.52;;;;;;;-1.15;67.23;97469.34;5070253;28;20121;-57
2022/01/31 05:30:25;;;;;;;22.83;11.65;;;;;;;-1.08;67.54;97477.63;5068514;28;20416;-56
2022/01/31 05:32:51;;;;;;;25.23;13.10;;;;;;;-1.16;67.17;97478.16;5081703;28;20028;-55
2022/01/31 05:35:16;;;;;;;19.55;10.15;;;;;;;-0.99;66.95;97490.09;5090247;28;20097;-53
2022/01/31 05:37:42;;;;;;;25.05;12.68;;;;;;;-1.13;67.25;97479.72;5088870;28;20043;-56
2022/01/31 05:40:09;;;;;;;25.13;11.57;;;;;;;-1.06;66.94;97484.44;5089534;28;20039;-56
2022/01/31 05:42:34;;;;;;;26.70;12.13;;;;;;;-1.07;66.58;97493.25;5089771;28;20032;-59
2022/01/31 05:45:01;;;;;;;25.75;12.73;;;;;;;-1.37;67.71;97449.84;5089266;28;20364;-57
2022/01/31 05:47:26;;;;;;;27.02;13.25;;;;;;;-1.18;67.88;97485.31;5087493;28;20046;-54
2022/01/31 05:49:52;;;;;;;26.63;12.77;;;;;;;-1.14;67.43;97484.13;5089878;28;20189;-56
2022/01/31 05:52:18;;;;;;;31.95;14.10;;;;;;;-1.08;67.51;97490.75;5089787;28;20028;-56
2022/01/31 05:54:43;;;;;;;26.92;12.90;;;;;;;-1.12;67.31;97479.63;5090359;28;20460;-54
2022/01/31 05:57:10;;;;;;;28.67;14.00;;;;;;;-1.03;67.43;97486.81;5090635;28;20036;-57
2022/01/31 05:59:39;;;;;;;29.23;13.23;;;;;;;-0.91;67.02;97497.44;5090661;28;20032;-54
2022/01/31 06:02:04;;;;;;;29.13;14.25;;;;;;;-0.99;67.20;97489.22;5088277;28;20020;-57
2022/01/31 06:04:30;;;;;;;28.88;13.75;;;;;;;-0.99;67.70;97486.59;5090247;28;20468;-57
2022/01/31 06:06:57;;;;;;;24.80;12.98;;;;;;;-1.16;67.82;97457.97;5090917;28;20032;-57
2022/01/31 06:09:23;;;;;;;28.30;14.18;;;;;;;-1.09;68.17;97476.75;5093897;28;20410;-56
2022/01/31 06:11:49;;;;;;;27.20;13.45;;;;;;;-1.01;67.74;97482.31;5082449;28;20074;-56
2022/01/31 06:14:15;;;;;;;25.65;13.00;;;;;;;-1.08;68.31;97486.31;5091637;28;20480;-52
2022/01/31 06:16:41;;;;;;;26.58;14.07;;;;;;;-1.03;67.70;97488.63;5093809;28;20028;-53
2022/01/31 06:19:07;;;;;;;23.15;12.18;;;;;;;-1.05;67.76;97486.09;5093628;28;20020;-55
2022/01/31 06:21:32;;;;;;;32.08;13.45;;;;;;;-1.04;67.44;97477.28;5093549;28;20027;-57
2022/01/31 06:23:58;;;;;;;27.23;13.68;;;;;;;-1.06;67.79;97488.84;5093567;28;20088;-54
2022/01/31 06:26:23;;;;;;;30.15;13.55;;;;;;;-1.07;68.13;97488.00;5087721;28;20488;-56
2022/01/31 06:28:49;;;;;;;31.23;14.65;;;;;;;-1.21;67.47;97433.84;5093752;28;20384;-56
2022/01/31 06:31:15;;;;;;;26.60;14.15;;;;;;;-0.97;68.04;97471.56;5092425;28;20388;-57
2022/01/31 06:33:42;;;;;;;23.83;12.40;;;;;;;-1.04;67.65;97442.31;5093246;28;20098;-56
2022/01/31 06:36:08;;;;;;;30.75;13.95;;;;;;;-0.90;67.30;97468.41;5093638;28;20234;-55
2022/01/31 06:38:35;;;;;;;29.13;13.73;;;;;;;-0.81;66.94;97479.22;5093483;28;20357;-61
2022/01/31 06:41:02;;;;;;;31.00;14.30;;;;;;;-0.81;67.04;97482.69;5091448;28;20027;-58
2022/01/31 06:43:27;;;;;;;28.00;13.50;;;;;;;-0.89;67.28;97474.50;5080405;28;20028;-55
2022/01/31 06:45:53;;;;;;;30.73;14.50;;;;;;;-0.98;68.08;97460.25;5093501;28;20483;-62
2022/01/31 06:48:18;;;;;;;30.98;14.60;;;;;;;-0.78;66.92;97471.94;5092472;28;20088;-62
2022/01/31 06:50:44;;;;;;;30.63;15.00;;;;;;;-0.81;67.03;97466.91;5091577;28;20032;-61
2022/01/31 06:53:11;;;;;;;35.50;15.18;;;;;;;-0.79;67.36;97467.63;5091081;28;20391;-62
2022/01/31 06:55:37;;;;;;;31.88;14.32;;;;;;;-0.81;67.38;97466.91;5090567;28;20115;-61
2022/01/31 06:58:03;;;;;;;30.38;15.10;;;;;;;-0.81;67.09;97459.03;5087883;28;20225;-62
2022/01/31 07:00:29;;;;;;;36.85;15.77;;;;;;;-1.03;67.21;97426.41;5090998;28;20141;-63
2022/01/31 07:02:54;;;;;;;30.95;15.10;;;;;;;-0.83;67.38;97458.31;5090330;28;20113;-62
2022/01/31 07:05:21;;;;;;;31.45;15.50;;;;;;;-0.83;68.38;97458.31;5090095;28;20031;-64
2022/01/31 07:07:47;;;;;;;32.58;15.95;;;;;;;-0.65;68.06;97456.13;5091630;28;20024;-61
2022/01/31 07:10:13;;;;;;;31.85;15.15;;;;;;;-0.45;67.53;97445.94;5091223;28;20096;-62
2022/01/31 07:12:41;;;;;;;31.65;15.32;;;;;;;-0.27;67.66;97451.63;5088666;28;20535;-63
2022/01/31 07:15:10;;;;;;;35.38;15.63;;;;;;;-0.02;66.77;97458.53;5088837;28;20414;-63
2022/01/31 07:17:37;;;;;;;36.13;15.82;;;;;;;0.14;66.07;97458.19;5090723;28;20442;-63
2022/01/31 07:20:10;;;;;;;37.00;16.27;;;;;;;0.19;65.57;97459.63;5089322;28;20460;-63
2022/01/31 07:22:38;;;;;;;34.22;15.95;;;;;;;0.20;66.07;97463.94;5089639;28;20031;-62
2022/01/31 07:25:09;;;;;;;34.30;15.70;;;;;;;0.27;65.96;97476.50;5090697;28;20529;-62
2022/01/31 07:27:35;;;;;;;33.60;14.90;;;;;;;0.28;65.76;97451.88;5090316;28;20042;-65
2022/01/31 07:30:05;;;;;;;28.67;13.75;;;;;;;0.42;65.25;97476.31;5088421;28;20028;-58
2022/01/31 07:32:32;;;;;;;31.83;15.27;;;;;;;0.47;65.11;97465.41;5099582;28;20109;-59
2022/01/31 07:34:58;;;;;;;33.10;15.20;;;;;;;0.33;64.94;97445.41;5102206;28;20028;-56
2022/01/31 07:37:25;;;;;;;30.60;15.52;;;;;;;0.33;65.52;97477.84;5106015;28;20471;-59
2022/01/31 07:39:51;;;;;;;33.97;15.98;;;;;;;0.17;66.29;97475.56;5093362;28;20059;-63
2022/01/31 07:42:18;;;;;;;31.52;15.35;;;;;;;0.07;66.43;97474.56;5106223;28;20040;-64
2022/01/31 07:44:43;;;;;;;33.63;15.93;;;;;;;0.06;66.56;97468.47;5098293;28;20036;-63
2022/01/31 07:47:09;;;;;;;33.10;15.23;;;;;;;0.17;66.09;97472.06;5099443;28;20048;-61
2022/01/31 07:49:35;;;;;;;33.53;15.23;;;;;;;0.13;66.70;97460.97;5094941;28;20063;-62
2022/01/31 07:52:00;;;;;;;30.92;15.20;;;;;;;-0.01;66.64;97438.28;5104996;28;20396;-63
2022/01/31 07:54:27;;;;;;;36.22;16.73;;;;;;;0.21;65.88;97479.63;5103453;28;20039;-62
2022/01/31 07:56:53;;;;;;;34.10;14.52;;;;;;;0.25;65.86;97464.44;5099099;28;20111;-65
2022/01/31 07:59:19;;;;;;;33.25;14.63;;;;;;;0.30;65.25;97472.81;5098556;28;20032;-62
2022/01/31 08:01:44;;;;;;;42.47;17.45;;;;;;;0.08;65.85;97470.97;5108923;28;20027;-63
2022/01/31 08:04:10;;;;;;;34.05;16.80;;;;;;;-0.22;66.47;97433.72;5091097;28;20106;-60
2022/01/31 08:06:36;;;;;;;35.17;16.92;;;;;;;-0.20;66.87;97460.75;5095539;28;20738;-57
2022/01/31 08:09:04;;;;;;;38.35;16.33;;;;;;;-0.13;67.20;97474.25;5100198;28;20057;-57
2022/01/31 08:11:34;;;;;;;37.30;16.85;;;;;;;-0.24;67.07;97472.44;5106276;28;20491;-58
2022/01/31 08:14:07;;;;;;;42.22;18.27;;;;;;;-0.33;67.79;97466.09;5094870;28;20035;-60
2022/01/31 08:16:37;;;;;;;37.45;17.00;;;;;;;-0.26;67.52;97476.13;5095482;28;20171;-58
2022/01/31 08:19:07;;;;;;;37.70;16.63;;;;;;;-0.31;68.46;97489.63;5099846;28;20043;-62
2022/01/31 08:21:33;;;;;;;39.15;16.98;;;;;;;-0.28;68.29;97486.75;5099051;28;20035;-61
2022/01/31 08:23:59;;;;;;;33.90;15.68;;;;;;;-0.16;67.69;97474.50;5093330;28;20028;-62
2022/01/31 08:26:24;;;;;;;42.17;18.17;;;;;;;-0.12;67.80;97475.09;5098049;27;20027;-59
2022/01/31 08:31:20;;;;;;;33.63;16.52;;;;;;;-0.05;67.43;97464.03;5102146;28;20099;-56
2022/01/31 08:34:03;;;;;;;38.75;16.23;;;;;;;0.14;67.19;97473.16;5108183;28;20511;-58
2022/01/31 08:36:34;;;;;;;38.40;15.98;;;;;;;-0.01;67.03;97461.97;5105237;28;20020;-56
2022/01/31 08:39:08;;;;;;;38.83;17.90;;;;;;;0.18;66.74;97477.22;5109493;28;20044;-60
2022/01/31 08:41:36;;;;;;;39.65;16.27;;;;;;;0.17;66.87;97486.06;5094472;28;20032;-60
2022/01/31 08:44:02;;;;;;;36.03;15.27;;;;;;;-0.03;67.73;97453.38;5107721;28;20404;-58
2022/01/31 08:46:28;;;;;;;46.78;17.98;;;;;;;-0.01;68.07;97486.50;5090422;28;20392;-54
2022/01/31 08:48:55;;;;;;;37.33;14.80;;;;;;;0.07;67.01;97485.94;5089591;28;20035;-59
2022/01/31 08:51:20;;;;;;;32.70;12.43;;;;;;;0.09;67.11;97470.88;5109837;28;20035;-59
2022/01/31 08:53:48;;;;;;;36.70;17.13;;;;;;;-0.02;67.71;97465.56;5094192;28;20036;-56
2022/01/31 08:56:14;;;;;;;37.45;14.40;;;;;;;0.08;67.16;97466.56;5105860;28;20028;-56
2022/01/31 08:58:45;;;;;;;38.70;16.55;;;;;;;-0.03;67.42;97475.25;5091692;28;20085;-57
2022/01/31 09:01:12;;;;;;;35.33;12.68;;;;;;;-0.09;67.95;97462.56;5096818;28;20555;-56
2022/01/31 09:06:06;;;;;;;34.90;15.93;;;;;;;-0.10;68.12;97479.31;5066195;28;20048;-55
2022/01/31 09:08:32;;;;;;;38.65;16.30;;;;;;;-0.03;68.05;97467.38;5047056;28;20029;-59
2022/01/31 09:10:57;;;;;;;37.22;16.23;;;;;;;0.02;68.39;97469.66;5059016;28;20097;-57
2022/01/31 09:13:23;;;;;;;38.92;16.95;;;;;;;0.09;68.29;97465.59;5055894;28;20028;-56
2022/01/31 09:15:49;;;;;;;36.35;15.73;;;;;;;0.22;67.69;97470.78;5066629;28;20036;-62
2022/01/31 09:18:15;;;;;;;40.85;17.48;;;;;;;0.14;67.29;97452.09;5048454;28;20384;-56
2022/01/31 09:20:40;;;;;;;38.05;17.05;;;;;;;0.23;68.15;97463.69;5055415;28;20369;-56
2022/01/31 09:23:06;;;;;;;40.13;16.10;;;;;;;0.31;67.30;97482.41;5058630;28;20083;-59
2022/01/31 09:25:33;;;;;;;37.80;16.98;;;;;;;0.38;66.75;97475.69;5061027;28;20017;-56
2022/01/31 09:28:00;;;;;;;42.90;18.50;;;;;;;0.35;66.73;97475.94;5067136;28;20029;-61
2022/01/31 09:30:29;;;;;;;41.67;18.70;;;;;;;0.33;67.11;97461.19;5049981;28;20029;-61
2022/01/31 09:32:56;;;;;;;43.40;17.63;;;;;;;0.12;68.34;97460.09;5060007;28;20528;-60
2022/01/31 09:35:22;;;;;;;43.75;17.02;;;;;;;0.22;68.18;97462.03;5049360;28;20393;-62
2022/01/31 09:37:48;;;;;;;43.97;18.42;;;;;;;0.32;68.24;97459.53;5066381;28;20125;-62
2022/01/31 09:40:19;;;;;;;40.50;17.10;;;;;;;0.22;67.36;97422.56;5040460;28;20044;-61
2022/01/31 09:48:32;;;;;;;43.10;17.33;;;;;;;0.34;67.00;97461.09;5042448;28;20448;-62
2022/01/31 09:50:58;;;;;;;30.02;11.77;;;;;;;0.33;67.32;97467.31;5054015;28;20037;-61
2022/01/31 09:53:24;;;;;;;41.95;18.20;;;;;;;0.29;67.27;97460.63;5060321;28;20037;-58
2022/01/31 09:55:52;;;;;;;42.58;18.13;;;;;;;0.06;67.51;97449.19;5056511;28;20068;-63
2022/01/31 09:58:18;;;;;;;47.40;19.58;;;;;;;0.08;68.46;97463.94;5062958;28;20099;-56
2022/01/31 10:00:44;;;;;;;36.83;15.35;;;;;;;0.18;68.22;97468.47;5061231;28;20160;-58
2022/01/31 10:03:10;;;;;;;45.17;18.05;;;;;;;0.11;68.73;97455.78;5063366;28;20097;-59
2022/01/31 10:05:36;;;;;;;46.20;18.20;;;;;;;0.23;68.53;97451.41;5057845;28;20021;-60
2022/01/31 10:08:14;;;;;;;43.05;17.67;;;;;;;0.37;67.59;97458.22;5069994;28;20035;-60
2022/01/31 10:10:43;;;;;;;46.38;17.90;;;;;;;0.38;67.72;97453.81;5060754;28;20503;-56
2022/01/31 10:16:27;;;;;;;49.35;18.48;;;;;;;0.28;68.36;97451.88;5041649;28;20082;-59
2022/01/31 10:19:18;;;;;;;44.65;18.58;;;;;;;0.39;68.67;97453.69;5058571;28;20488;-60
2022/01/31 10:21:55;;;;;;;49.67;18.08;;;;;;;0.63;67.18;97457.19;5060630;28;20045;-58
2022/01/31 10:24:21;;;;;;;56.47;21.13;;;;;;;0.52;67.19;97456.19;5042065;28;20111;-56
2022/01/31 10:26:46;;;;;;;53.55;20.00;;;;;;;0.45;67.67;97460.28;5072194;28;20120;-58
2022/01/31 10:29:14;;;;;;;50.63;20.00;;;;;;;0.43;67.50;97444.59;5071388;28;20103;-57
2022/01/31 10:31:58;;;;;;;60.70;22.17;;;;;;;0.47;67.90;97446.97;5055865;28;20041;-52
2022/01/31 10:34:25;;;;;;;50.63;19.88;;;;;;;0.56;67.22;97446.28;5043620;28;20036;-54
2022/01/31 10:36:52;;;;;;;56.50;23.13;;;;;;;0.40;68.02;97452.72;5054320;28;20052;-57
2022/01/31 10:54:10;;;;;;;61.88;23.45;;;;;;;0.26;68.77;97434.53;5032067;28;20037;-54
2022/01/31 10:56:40;;;;;;;;;;;;;;;0.40;68.11;97430.84;5051789;28;20041;-56
2022/01/31 10:59:06;;;;;;;55.45;21.95;;;;;;;0.31;68.76;97429.75;5057995;28;19920;-56
2022/01/31 11:01:31;;;;;;;57.78;21.95;;;;;;;0.42;68.03;97432.38;5051855;28;20032;-54
2022/01/31 11:04:03;;;;;;;59.33;22.88;;;;;;;0.38;68.43;97433.56;5055381;28;20059;-58
2022/01/31 11:06:30;;;;;;;52.92;22.58;;;;;;;0.35;68.22;97428.56;5037662;28;20043;-56
2022/01/31 11:09:02;;;;;;;58.20;23.65;;;;;;;0.37;68.61;97429.28;5064533;28;20021;-51
2022/01/31 11:11:28;;;;;;;56.45;22.90;;;;;;;0.37;68.33;97425.81;5039390;28;20040;-50
2022/01/31 11:13:55;;;;;;;53.03;21.73;;;;;;;0.26;68.34;97410.84;5062241;28;20024;-55
2022/01/31 11:16:20;;;;;;;56.22;23.33;;;;;;;0.19;68.64;97396.47;5054876;28;20029;-56
2022/01/31 11:18:47;;;;;;;53.70;23.20;;;;;;;0.34;69.17;97433.94;5066717;28;20354;-50
2022/01/31 11:21:13;;;;;;;53.00;20.73;;;;;;;0.36;69.20;97435.50;5061047;28;20099;-57
2022/01/31 11:23:42;;;;;;;50.08;22.88;;;;;;;0.42;68.39;97424.47;5066175;28;20131;-53
2022/01/31 11:26:11;;;;;;;52.00;22.17;;;;;;;0.61;67.48;97419.59;5051810;28;20433;-55
2022/01/31 11:28:44;;;;;;;50.13;21.42;;;;;;;0.46;68.10;97427.72;5047954;28;20044;-59
2022/01/31 11:31:10;;;;;;;49.70;21.83;;;;;;;0.39;68.32;97416.81;5057070;28;20028;-54
2022/01/31 11:33:36;;;;;;;52.65;22.30;;;;;;;0.32;68.74;97427.94;5077201;28;20033;-58
2022/01/31 11:36:03;;;;;;;49.72;22.70;;;;;;;0.23;68.63;97403.16;5044145;28;20391;-56
2022/01/31 11:38:29;;;;;;;49.42;22.55;;;;;;;0.38;68.74;97423.06;5056088;28;20028;-56
2022/01/31 11:41:01;;;;;;;49.70;21.95;;;;;;;0.43;68.45;97420.06;5050713;28;20025;-55
2022/01/31 11:43:27;;;;;;;46.42;22.27;;;;;;;0.32;68.94;97412.16;5034661;28;20374;-57
2022/01/31 11:45:54;;;;;;;49.53;21.60;;;;;;;0.35;68.64;97418.03;5054862;28;20065;-58
2022/01/31 11:48:24;;;;;;;56.97;22.42;;;;;;;0.17;69.10;97382.59;5051169;28;20439;-59
2022/01/31 11:50:53;;;;;;;50.72;21.23;;;;;;;0.54;68.43;97429.75;5061170;28;20095;-55